Pontiac, Michigan
Current Conditions -  °F | °C
As of 11:37 PM on Thursday 18 Dec 2014 (Local Time) from KPTK Reporting Station
Freezing Drizzle Freezing Drizzle  
Wind Chill: 20°   Ceiling: 1000
Heat Index: 27°   Visibility: 10mi
Dew Point: 24°   Wind: 6mph
Humidity: 89%   Direction: 350°N
Pressure: 30.17"   Gusts: NA
Location:  42.64°N, 83.29°W
Report Text: KPTK 190437Z 35005KT 10SM -FZDZ BKN010 OVC016 M03/M04 A3017 RMK AO2 P0000 I1000 T10281044
Loading
Personal Weather Stations






























Interactive Weather Map New forecast layout! Learn more

10-Day Weather Forecast

Advertisements
Track Severe Weather on mobile